createdAt,value
2022-08-10T00:00:58.683Z,15.16
2022-08-10T00:03:26.588Z,15.12
2022-08-10T00:05:56.355Z,15.10
2022-08-10T00:08:26.013Z,15.08
2022-08-10T00:10:54.417Z,15.14
2022-08-10T00:13:22.652Z,15.13
2022-08-10T00:15:53.512Z,15.16
2022-08-10T00:18:34.796Z,15.17
2022-08-10T00:21:03.100Z,15.22
2022-08-10T00:23:30.766Z,15.28
2022-08-10T00:25:58.357Z,15.32
2022-08-10T00:28:26.276Z,15.34
2022-08-10T00:30:53.873Z,15.35
2022-08-10T00:33:22.960Z,15.33
2022-08-10T00:35:51.158Z,15.32
2022-08-10T00:38:19.103Z,15.22
2022-08-10T00:40:47.089Z,15.13
2022-08-10T00:43:14.700Z,15.10
2022-08-10T00:45:42.310Z,15.10
2022-08-10T00:48:10.804Z,15.08
2022-08-10T00:50:39.837Z,15.06
2022-08-10T00:53:08.047Z,14.92
2022-08-10T00:56:35.140Z,14.79
2022-08-10T00:58:25.004Z,14.68
2022-08-10T01:00:53.800Z,14.59
2022-08-10T01:04:58.949Z,14.50
2022-08-10T01:06:16.757Z,14.38
2022-08-10T01:08:52.441Z,14.31
2022-08-10T01:12:47.340Z,14.25
2022-08-10T01:14:27.396Z,14.16
2022-08-10T01:17:01.283Z,14.08
2022-08-10T01:19:46.881Z,14.02
2022-08-10T01:22:33.115Z,13.96
2022-08-10T01:25:20.098Z,13.89
2022-08-10T01:27:55.242Z,13.82
2022-08-10T01:30:25.301Z,13.79
2022-08-10T01:32:58.589Z,13.74
2022-08-10T01:35:34.028Z,13.69
2022-08-10T01:38:06.665Z,13.66
2022-08-10T01:40:39.633Z,13.62
2022-08-10T01:43:10.966Z,13.57
2022-08-10T01:45:45.727Z,13.54
2022-08-10T01:48:32.226Z,13.51
2022-08-10T01:51:09.011Z,13.48
2022-08-10T01:53:41.836Z,13.47
2022-08-10T01:56:11.908Z,13.45
2022-08-10T01:58:40.521Z,13.44
2022-08-10T02:01:16.956Z,13.41
2022-08-10T02:04:03.764Z,13.39
2022-08-10T02:06:36.662Z,13.37
2022-08-10T02:09:07.538Z,13.34
2022-08-10T02:12:05.501Z,13.32
2022-08-10T02:14:25.813Z,13.30
2022-08-10T02:17:03.607Z,13.28
2022-08-10T02:19:33.677Z,13.25
2022-08-10T02:22:36.859Z,13.26
2022-08-10T02:24:53.351Z,13.28
2022-08-10T02:27:24.753Z,13.37
2022-08-10T02:29:54.866Z,13.47
2022-08-10T02:32:37.783Z,13.59
2022-08-10T02:35:15.559Z,13.68
2022-08-10T02:37:52.591Z,13.75
2022-08-10T02:45:01.822Z,13.84
2022-08-10T02:45:26.073Z,13.91
2022-08-10T02:46:18.241Z,13.97
2022-08-10T02:48:55.191Z,14.03
2022-08-10T02:52:06.523Z,14.06
2022-08-10T02:54:22.885Z,14.07
2022-08-10T02:56:56.391Z,14.06
2022-08-10T02:59:28.962Z,14.07
2022-08-10T03:02:11.486Z,14.01
2022-08-10T03:04:55.345Z,13.96
2022-08-10T03:07:44.732Z,13.98
2022-08-10T03:10:16.123Z,13.99
2022-08-10T03:12:46.109Z,14.01
2022-08-10T03:15:15.828Z,14.01
2022-08-10T03:17:57.637Z,13.96
2022-08-10T03:20:37.830Z,13.90
2022-08-10T03:23:10.846Z,13.79
2022-08-10T03:25:39.030Z,13.69
2022-08-10T03:28:07.531Z,13.61
2022-08-10T03:30:36.071Z,13.59
2022-08-10T03:33:05.813Z,13.55
2022-08-10T03:35:35.487Z,13.55
2022-08-10T03:38:04.065Z,13.50
2022-08-10T03:40:45.296Z,13.45
2022-08-10T03:43:17.012Z,13.46
2022-08-10T03:45:55.345Z,13.48
2022-08-10T03:48:32.051Z,13.45
2022-08-10T03:51:15.712Z,13.38
2022-08-10T03:54:06.043Z,13.38
2022-08-10T03:56:33.021Z,13.36
2022-08-10T03:59:01.587Z,13.39
2022-08-10T04:02:46.058Z,13.40
2022-08-10T04:04:23.695Z,13.35
2022-08-10T04:06:55.810Z,13.35
2022-08-10T04:09:24.568Z,13.36
2022-08-10T04:11:57.700Z,13.37
2022-08-10T04:14:38.597Z,13.38
2022-08-10T04:17:14.156Z,13.39
2022-08-10T04:19:45.832Z,13.40
2022-08-10T04:22:18.720Z,13.39
2022-08-10T04:24:49.890Z,13.42
2022-08-10T04:27:17.894Z,13.44
2022-08-10T04:29:45.982Z,13.46
2022-08-10T04:32:16.368Z,13.53
2022-08-10T04:34:46.365Z,13.61
2022-08-10T04:37:18.981Z,13.67
2022-08-10T04:39:46.938Z,13.77
2022-08-10T04:42:14.865Z,13.88
2022-08-10T04:44:43.013Z,13.98
2022-08-10T04:47:10.577Z,14.12
2022-08-10T04:49:56.080Z,14.27
2022-08-10T04:52:25.718Z,14.50
2022-08-10T04:54:53.293Z,14.68
2022-08-10T04:57:20.870Z,14.94
2022-08-10T04:59:48.430Z,15.48
2022-08-10T05:02:31.316Z,16.58
2022-08-10T05:05:00.128Z,18.15
2022-08-10T05:07:29.103Z,19.61
2022-08-10T05:10:02.555Z,20.87
2022-08-10T05:12:35.975Z,22.09
2022-08-10T05:15:06.918Z,23.31
2022-08-10T05:17:34.791Z,24.28
2022-08-10T05:20:06.428Z,25.08
2022-08-10T05:22:41.640Z,25.89
2022-08-10T05:25:11.248Z,26.60
2022-08-10T05:27:39.296Z,26.99
2022-08-10T05:30:08.493Z,27.11
2022-08-10T05:32:59.008Z,27.37
2022-08-10T05:35:24.453Z,27.60
2022-08-10T05:38:12.664Z,27.91
2022-08-10T05:40:47.543Z,27.64
2022-08-10T05:43:19.016Z,27.82
2022-08-10T05:46:18.594Z,27.93
2022-08-10T05:48:55.067Z,27.95
2022-08-10T05:51:24.068Z,28.47
2022-08-10T05:54:01.940Z,28.46
2022-08-10T05:56:55.326Z,28.31
2022-08-10T06:00:11.146Z,28.31
2022-08-10T06:02:33.317Z,28.71
2022-08-10T06:05:06.941Z,29.09
2022-08-10T06:07:38.355Z,28.95
2022-08-10T06:10:10.404Z,29.38
2022-08-10T06:12:55.446Z,29.64
2022-08-10T06:15:52.182Z,30.02
2022-08-10T06:18:15.381Z,29.99
2022-08-10T06:20:43.493Z,29.92
2022-08-10T06:23:13.362Z,30.45
2022-08-10T06:26:09.815Z,30.73
2022-08-10T06:28:33.493Z,30.66
2022-08-10T06:31:02.569Z,29.57
2022-08-10T06:33:32.847Z,28.70
2022-08-10T06:36:02.525Z,28.28
2022-08-10T06:38:33.688Z,28.13
2022-08-10T06:41:05.926Z,27.68
2022-08-10T06:43:36.253Z,28.05
2022-08-10T06:46:09.706Z,28.22
2022-08-10T06:48:47.342Z,29.04
2022-08-10T06:51:18.638Z,28.80
2022-08-10T06:53:53.626Z,28.52
2022-08-10T06:56:37.514Z,28.45
2022-08-10T06:59:21.342Z,28.16
2022-08-10T07:01:52.990Z,28.14
2022-08-10T07:04:33.362Z,27.73
2022-08-10T07:07:04.476Z,27.80
2022-08-10T07:09:34.019Z,27.48
2022-08-10T07:12:08.038Z,27.52
2022-08-10T07:14:39.559Z,27.14
2022-08-10T07:17:09.006Z,26.98
2022-08-10T07:19:50.229Z,27.21
2022-08-10T07:23:08.276Z,27.51
2022-08-10T07:25:12.736Z,27.71
2022-08-10T07:28:00.391Z,27.94
2022-08-10T07:30:31.562Z,28.66
2022-08-10T07:33:01.307Z,28.46
2022-08-10T07:35:36.805Z,28.79
2022-08-10T07:38:13.898Z,29.07
2022-08-10T07:40:42.691Z,28.84
2022-08-10T07:43:13.531Z,28.77
2022-08-10T07:45:41.490Z,28.21
2022-08-10T07:48:14.680Z,28.16
2022-08-10T07:50:42.465Z,27.85
2022-08-10T07:53:13.976Z,27.71
2022-08-10T07:56:07.389Z,27.08
2022-08-10T07:58:36.880Z,26.32
2022-08-10T08:01:04.707Z,25.79
2022-08-10T08:03:33.841Z,25.50
2022-08-10T08:06:05.534Z,24.53
2022-08-10T08:08:41.438Z,24.54
2022-08-10T08:11:10.296Z,24.55
2022-08-10T08:13:56.428Z,24.55
2022-08-10T08:16:25.654Z,24.54
2022-08-10T08:24:09.713Z,24.78
2022-08-10T08:24:36.477Z,25.15
2022-08-10T08:27:07.573Z,25.08
2022-08-10T08:29:40.088Z,25.35
2022-08-10T08:32:08.457Z,25.20
2022-08-10T08:34:39.608Z,24.95
2022-08-10T08:37:10.094Z,24.88
2022-08-10T08:39:37.899Z,24.76
2022-08-10T08:42:17.470Z,24.40
2022-08-10T08:45:01.902Z,24.21
2022-08-10T08:48:04.829Z,24.34
2022-08-10T08:50:46.369Z,24.11
2022-08-10T08:54:01.165Z,24.29
2022-08-10T08:56:24.800Z,24.11
2022-08-10T08:59:06.900Z,24.03
2022-08-10T09:01:49.948Z,24.13
2022-08-10T09:04:31.437Z,24.57
2022-08-10T09:07:56.264Z,24.05
2022-08-10T09:10:13.340Z,24.61
2022-08-10T09:12:52.553Z,23.98
2022-08-10T09:15:40.702Z,23.78
2022-08-10T09:18:17.188Z,23.86
2022-08-10T09:20:50.770Z,24.19
2022-08-10T09:24:04.285Z,24.36
2022-08-10T09:26:20.122Z,24.41
2022-08-10T09:29:11.651Z,24.46
2022-08-10T09:32:54.336Z,24.22
2022-08-10T09:36:23.692Z,24.37
2022-08-10T09:38:02.271Z,24.46
2022-08-10T09:41:01.302Z,24.60
2022-08-10T09:43:37.171Z,24.94
2022-08-10T09:46:15.086Z,25.21
2022-08-10T09:48:55.464Z,25.37
2022-08-10T09:51:45.280Z,25.39
2022-08-10T09:54:27.925Z,25.19
2022-08-10T09:57:44.121Z,25.38
2022-08-10T10:00:03.034Z,25.66
2022-08-10T10:02:39.121Z,25.66
2022-08-10T10:05:17.629Z,25.81
2022-08-10T10:08:01.673Z,25.39
2022-08-10T10:10:36.972Z,25.27
2022-08-10T10:13:58.317Z,25.13
2022-08-10T10:16:24.597Z,25.05
2022-08-10T10:19:08.705Z,25.12
2022-08-10T10:21:55.087Z,25.14
2022-08-10T10:24:36.906Z,25.30
2022-08-10T10:27:16.230Z,25.58
2022-08-10T10:29:58.543Z,25.83
2022-08-10T10:32:37.688Z,25.98
2022-08-10T10:35:16.261Z,26.04
2022-08-10T10:38:01.952Z,26.02
2022-08-10T10:40:38.559Z,26.27
2022-08-10T10:43:12.085Z,26.40
2022-08-10T10:45:57.364Z,26.40
2022-08-10T10:48:33.823Z,25.78
2022-08-10T10:51:10.976Z,25.57
2022-08-10T10:53:47.133Z,25.75
2022-08-10T10:56:21.380Z,25.98
2022-08-10T10:58:59.749Z,25.56
2022-08-10T11:01:38.799Z,25.49
2022-08-10T11:04:24.092Z,25.20
2022-08-10T11:07:02.966Z,25.46
2022-08-10T11:10:04.863Z,25.42
2022-08-10T11:12:47.748Z,25.59
2022-08-10T11:15:25.102Z,25.71
2022-08-10T11:17:58.850Z,26.05
2022-08-10T11:20:37.308Z,26.05
2022-08-10T11:23:18.503Z,26.16
2022-08-10T11:25:52.754Z,25.86
2022-08-10T11:28:34.038Z,25.95
2022-08-10T11:31:12.009Z,26.07
2022-08-10T11:34:11.735Z,26.06
2022-08-10T11:36:41.735Z,26.45
2022-08-10T11:39:15.886Z,26.30
2022-08-10T11:42:12.276Z,25.90
2022-08-10T11:44:51.965Z,26.01
2022-08-10T11:47:23.492Z,25.98
2022-08-10T11:49:55.737Z,26.27
2022-08-10T11:52:35.364Z,26.29
2022-08-10T11:55:12.773Z,26.37
2022-08-10T11:57:54.794Z,26.37
2022-08-10T12:00:25.223Z,26.36
2022-08-10T12:03:04.692Z,26.37
2022-08-10T12:05:52.003Z,26.42
2022-08-10T12:10:03.451Z,26.12
2022-08-10T12:11:23.852Z,26.47
2022-08-10T12:14:19.611Z,26.50
2022-08-10T12:16:52.196Z,26.75
2022-08-10T12:19:25.012Z,26.73
2022-08-10T12:22:02.216Z,26.75
2022-08-10T12:24:39.099Z,26.92
2022-08-10T12:27:13.262Z,26.84
2022-08-10T12:29:47.197Z,27.03
2022-08-10T12:32:25.853Z,27.18
2022-08-10T12:35:01.358Z,27.27
2022-08-10T12:37:34.772Z,27.42
2022-08-10T12:40:33.792Z,27.28
2022-08-10T12:44:04.264Z,26.93
2022-08-10T12:46:08.186Z,26.94
2022-08-10T12:48:45.010Z,26.95
2022-08-10T12:51:19.466Z,26.94
2022-08-10T12:53:53.997Z,27.26
2022-08-10T12:56:27.321Z,27.33
2022-08-10T12:59:00.664Z,27.47
2022-08-10T13:02:07.407Z,27.33
2022-08-10T13:04:29.285Z,26.93
2022-08-10T13:06:59.931Z,27.23
2022-08-10T13:09:28.685Z,26.81
2022-08-10T13:12:35.399Z,26.76
2022-08-10T13:14:50.783Z,26.80
2022-08-10T13:17:24.629Z,27.09
2022-08-10T13:20:16.248Z,27.02
2022-08-10T13:22:47.665Z,26.94
2022-08-10T13:25:21.552Z,26.95
2022-08-10T13:27:59.652Z,27.12
2022-08-10T13:30:33.422Z,27.21
2022-08-10T13:33:06.847Z,27.16
2022-08-10T13:35:37.673Z,27.01
2022-08-10T13:38:07.195Z,27.08
2022-08-10T13:40:36.909Z,27.21
2022-08-10T13:43:08.122Z,27.26
2022-08-10T13:45:45.092Z,27.05
2022-08-10T13:48:19.738Z,27.05
2022-08-10T13:50:51.720Z,27.15
2022-08-10T13:53:21.719Z,27.10
2022-08-10T13:55:55.148Z,27.12
2022-08-10T13:58:30.435Z,27.27
2022-08-10T14:00:59.948Z,27.17
2022-08-10T14:03:28.994Z,27.14
2022-08-10T14:05:59.535Z,27.31
2022-08-10T14:08:30.161Z,27.40
2022-08-10T14:11:10.851Z,27.40
2022-08-10T14:13:43.461Z,27.31
2022-08-10T14:16:12.225Z,27.36
2022-08-10T14:18:42.196Z,27.42
2022-08-10T14:21:11.941Z,27.26
2022-08-10T14:23:51.995Z,27.26
2022-08-10T14:26:24.279Z,27.02
2022-08-10T14:28:55.430Z,27.22
2022-08-10T14:31:26.884Z,27.16
2022-08-10T14:33:58.143Z,27.00
2022-08-10T14:36:33.168Z,26.86
2022-08-10T14:39:03.450Z,26.92
2022-08-10T14:42:03.192Z,27.05
2022-08-10T14:44:25.785Z,27.23
2022-08-10T14:46:58.534Z,27.30
2022-08-10T14:49:29.421Z,27.21
2022-08-10T14:52:19.389Z,27.29
2022-08-10T14:54:56.488Z,27.32
2022-08-10T14:58:17.021Z,27.31
2022-08-10T15:00:31.519Z,27.40
2022-08-10T15:03:10.965Z,27.16
2022-08-10T15:05:54.170Z,27.08
2022-08-10T15:08:36.676Z,26.95
2022-08-10T15:11:05.920Z,27.02
2022-08-10T15:13:35.465Z,27.05
2022-08-10T15:16:13.831Z,26.81
2022-08-10T15:18:58.207Z,26.91
2022-08-10T15:21:35.223Z,26.95
2022-08-10T15:24:16.149Z,27.01
2022-08-10T15:26:57.478Z,26.93
2022-08-10T15:29:28.017Z,26.76
2022-08-10T15:32:13.293Z,26.90
2022-08-10T15:35:01.683Z,26.63
2022-08-10T15:37:39.835Z,26.54
2022-08-10T15:40:24.889Z,26.49
2022-08-10T15:43:00.984Z,26.31
2022-08-10T15:45:29.270Z,26.43
2022-08-10T15:48:03.448Z,26.50
2022-08-10T15:50:35.499Z,26.50
2022-08-10T15:53:15.947Z,26.56
2022-08-10T15:55:51.377Z,26.63
2022-08-10T15:58:39.669Z,26.54
2022-08-10T16:02:14.097Z,26.43
2022-08-10T16:04:08.597Z,26.34
2022-08-10T16:06:42.646Z,26.21
2022-08-10T16:10:24.578Z,26.32
2022-08-10T16:12:09.283Z,26.26
2022-08-10T16:14:38.546Z,26.19
2022-08-10T16:17:10.590Z,26.15
2022-08-10T16:19:46.338Z,26.06
2022-08-10T16:22:35.619Z,26.07
2022-08-10T16:25:12.360Z,26.03
2022-08-10T16:27:43.956Z,26.02
2022-08-10T16:30:12.806Z,26.02
2022-08-10T16:32:41.628Z,26.01
2022-08-10T16:35:16.429Z,25.96
2022-08-10T16:37:57.825Z,25.82
2022-08-10T16:40:27.857Z,25.81
2022-08-10T16:42:58.420Z,25.92
2022-08-10T16:45:32.441Z,25.91
2022-08-10T16:48:01.761Z,25.82
2022-08-10T16:50:33.641Z,25.86
2022-08-10T16:53:03.162Z,25.76
2022-08-10T16:55:49.533Z,25.67
2022-08-10T16:58:25.557Z,25.64
2022-08-10T17:00:54.268Z,25.61
2022-08-10T17:04:06.943Z,25.52
2022-08-10T17:06:21.828Z,25.38
2022-08-10T17:08:53.524Z,25.30
2022-08-10T17:11:24.026Z,25.12
2022-08-10T17:13:56.321Z,25.10
2022-08-10T17:16:25.412Z,24.99
2022-08-10T17:18:55.649Z,25.00
2022-08-10T17:21:26.741Z,24.94
2022-08-10T17:23:57.131Z,24.89
2022-08-10T17:26:35.757Z,24.85
2022-08-10T17:29:53.247Z,24.85
2022-08-10T17:32:06.862Z,24.87
2022-08-10T17:34:37.754Z,24.87
2022-08-10T17:37:11.886Z,24.82
2022-08-10T17:39:55.579Z,24.69
2022-08-10T17:42:26.149Z,24.64
2022-08-10T17:44:56.527Z,24.53
2022-08-10T17:47:27.470Z,24.46
2022-08-10T17:49:56.572Z,24.38
2022-08-10T17:52:27.020Z,24.29
2022-08-10T17:54:57.280Z,24.19
2022-08-10T17:57:26.301Z,24.12
2022-08-10T17:59:57.030Z,24.02
2022-08-10T18:02:28.219Z,24.01
2022-08-10T18:04:58.340Z,23.94
2022-08-10T18:07:32.653Z,23.88
2022-08-10T18:10:02.608Z,23.82
2022-08-10T18:12:38.673Z,23.75
2022-08-10T18:15:12.171Z,23.67
2022-08-10T18:17:45.857Z,23.60
2022-08-10T18:20:14.855Z,23.52
2022-08-10T18:22:47.420Z,23.45
2022-08-10T18:25:19.904Z,23.31
2022-08-10T18:28:03.926Z,23.23
2022-08-10T18:30:45.424Z,23.13
2022-08-10T18:33:15.121Z,23.04
2022-08-10T18:35:45.772Z,22.94
2022-08-10T18:38:15.449Z,22.83
2022-08-10T18:40:53.324Z,22.71
2022-08-10T18:44:07.322Z,22.63
2022-08-10T18:46:17.855Z,22.51
2022-08-10T18:48:49.633Z,22.42
2022-08-10T18:51:24.472Z,22.35
2022-08-10T18:53:56.325Z,22.26
2022-08-10T18:56:39.258Z,22.17
2022-08-10T18:59:29.231Z,22.08
2022-08-10T19:02:14.649Z,21.96
2022-08-10T19:05:00.046Z,21.83
2022-08-10T19:07:49.960Z,21.71
2022-08-10T19:10:35.194Z,21.60
2022-08-10T19:13:11.620Z,21.46
2022-08-10T19:15:45.237Z,21.36
2022-08-10T19:18:26.882Z,21.25
2022-08-10T19:20:59.649Z,21.17
2022-08-10T19:23:52.322Z,21.08
2022-08-10T19:26:43.804Z,21.01
2022-08-10T19:30:09.786Z,20.92
2022-08-10T19:32:28.269Z,20.85
2022-08-10T19:35:05.092Z,20.78
2022-08-10T19:37:42.051Z,20.72
2022-08-10T19:40:21.659Z,20.63
2022-08-10T19:43:30.668Z,20.55
2022-08-10T19:46:12.197Z,20.48
2022-08-10T19:48:47.358Z,20.41
2022-08-10T19:51:23.794Z,20.36
2022-08-10T19:54:05.919Z,20.30
2022-08-10T19:56:46.820Z,20.23
2022-08-10T20:00:16.478Z,20.17
2022-08-10T20:02:20.770Z,20.11
2022-08-10T20:05:06.898Z,20.08
2022-08-10T20:07:43.612Z,20.03
2022-08-10T20:10:17.478Z,19.97
2022-08-10T20:12:52.717Z,19.93
2022-08-10T20:15:31.569Z,19.88
2022-08-10T20:18:14.232Z,19.81
2022-08-10T20:20:47.223Z,19.74
2022-08-10T20:23:18.701Z,19.67
2022-08-10T20:25:49.962Z,19.61
2022-08-10T20:28:29.344Z,19.55
2022-08-10T20:31:07.216Z,19.45
2022-08-10T20:33:41.581Z,19.37
2022-08-10T20:36:16.534Z,19.30
2022-08-10T20:38:52.134Z,19.22
2022-08-10T20:41:27.521Z,19.17
2022-08-10T20:44:04.709Z,19.11
2022-08-10T20:46:36.578Z,19.08
2022-08-10T20:49:20.707Z,19.04
2022-08-10T20:51:57.295Z,19.01
2022-08-10T20:54:35.241Z,18.96
2022-08-10T20:57:54.210Z,18.92
2022-08-10T21:00:22.887Z,18.89
2022-08-10T21:03:20.810Z,18.87
2022-08-10T21:06:00.333Z,18.86
2022-08-10T21:08:38.838Z,18.84
2022-08-10T21:11:14.995Z,18.84
2022-08-10T21:14:02.116Z,18.83
2022-08-10T21:16:41.513Z,18.82
2022-08-10T21:19:33.125Z,18.79
2022-08-10T21:22:12.547Z,18.76
2022-08-10T21:24:52.369Z,18.69
2022-08-10T21:27:42.497Z,18.64
2022-08-10T21:30:17.022Z,18.57
2022-08-10T21:32:54.230Z,18.53
2022-08-10T21:35:37.226Z,18.48
2022-08-10T21:38:16.728Z,18.40
2022-08-10T21:41:18.642Z,18.35
2022-08-10T21:44:25.294Z,18.29
2022-08-10T21:47:39.595Z,18.22
2022-08-10T21:50:27.559Z,18.13
2022-08-10T21:53:19.942Z,18.06
2022-08-10T21:56:16.850Z,17.91
2022-08-10T21:59:11.145Z,17.77
2022-08-10T22:02:05.632Z,17.67
2022-08-10T22:04:51.942Z,17.58
2022-08-10T22:07:39.732Z,17.49
2022-08-10T22:10:28.963Z,17.42
2022-08-10T22:13:19.647Z,17.33
2022-08-10T22:16:11.878Z,17.27
2022-08-10T22:19:02.232Z,17.20
2022-08-10T22:21:59.210Z,17.17
2022-08-10T22:24:55.009Z,17.13
2022-08-10T22:27:50.332Z,17.10
2022-08-10T22:30:37.084Z,17.09
2022-08-10T22:33:35.647Z,17.09
2022-08-10T22:36:53.418Z,17.11
2022-08-10T22:40:05.823Z,17.13
2022-08-10T22:43:11.118Z,17.16
2022-08-10T22:46:05.085Z,17.20
2022-08-10T22:48:59.050Z,17.19
2022-08-10T22:51:35.862Z,17.22
2022-08-10T22:54:31.917Z,17.19
2022-08-10T22:57:19.068Z,17.19
2022-08-10T22:59:47.669Z,17.20
2022-08-10T23:02:29.188Z,17.20
2022-08-10T23:05:04.731Z,17.19
2022-08-10T23:07:35.145Z,17.15
2022-08-10T23:10:06.492Z,17.11
2022-08-10T23:12:38.805Z,17.05
2022-08-10T23:15:33.020Z,16.98
2022-08-10T23:18:21.133Z,16.91
2022-08-10T23:20:52.821Z,16.93
2022-08-10T23:23:24.038Z,16.91
2022-08-10T23:25:57.061Z,16.93
2022-08-10T23:28:55.557Z,16.95
2022-08-10T23:31:17.715Z,16.98
2022-08-10T23:34:06.586Z,16.96
2022-08-10T23:36:38.308Z,16.93
2022-08-10T23:39:27.114Z,16.92
2022-08-10T23:42:03.071Z,16.91
2022-08-10T23:44:36.403Z,16.91
2022-08-10T23:47:06.169Z,16.88
2022-08-10T23:49:36.144Z,16.88
2022-08-10T23:52:13.278Z,16.84
2022-08-10T23:54:49.892Z,16.84
2022-08-10T23:57:19.914Z,16.82
2022-08-10T23:59:52.982Z,16.80
